Time;durP1;ratioP1;P1;durP2;ratioP2;P2;SDS_P1;SDS_P2;PMS_P1;PMS_P2;Temp;Humidity;BMP_temperature;BMP_pressure;BME280_temperature;BME280_humidity;BME280_pressure;Samples;Min_cycle;Max_cycle;Signal;HPM_P1;HPM_P2
2023/06/20 00:01:02;;;;;;;14.98;10.40;;;24.00;77.30;;;;;;5020190;28;20032;-84
2023/06/20 00:03:27;;;;;;;15.23;11.50;;;23.90;77.50;;;;;;5021793;28;20033;-84
2023/06/20 00:05:53;;;;;;;15.60;10.88;;;23.90;77.60;;;;;;5022226;28;20017;-84
2023/06/20 00:08:21;;;;;;;19.48;11.25;;;23.90;77.60;;;;;;5026251;28;20060;-85
2023/06/20 00:10:46;;;;;;;14.65;11.45;;;23.90;78.00;;;;;;5026418;28;20017;-84
2023/06/20 00:13:12;;;;;;;14.50;11.85;;;23.90;77.80;;;;;;5008492;28;20024;-83
2023/06/20 00:15:41;;;;;;;14.05;10.85;;;24.00;77.90;;;;;;5025105;28;20022;-82
2023/06/20 00:18:06;;;;;;;16.33;11.50;;;23.90;77.80;;;;;;5013793;28;20033;-85
2023/06/20 00:20:32;;;;;;;16.40;11.60;;;23.90;78.00;;;;;;5018699;28;20032;-85
2023/06/20 00:22:58;;;;;;;17.85;12.05;;;23.90;78.80;;;;;;5025041;28;20822;-81
2023/06/20 00:25:23;;;;;;;16.23;11.95;;;23.90;78.30;;;;;;5009842;28;20029;-81
2023/06/20 00:27:49;;;;;;;15.60;11.77;;;23.90;78.40;;;;;;5010195;28;20057;-82
2023/06/20 00:30:15;;;;;;;21.50;12.55;;;23.90;78.60;;;;;;5007410;28;20389;-83
2023/06/20 00:32:41;;;;;;;17.60;11.70;;;23.80;78.70;;;;;;5026307;28;20481;-82
2023/06/20 00:35:07;;;;;;;17.90;12.32;;;23.80;78.90;;;;;;5016329;28;20022;-81
2023/06/20 00:37:36;;;;;;;19.63;12.27;;;23.80;78.70;;;;;;5025587;28;20028;-83
2023/06/20 00:40:03;;;;;;;15.77;12.07;;;23.80;78.90;;;;;;5026006;28;20029;-81
2023/06/20 00:42:29;;;;;;;17.05;12.38;;;23.80;79.00;;;;;;5025583;28;20055;-81
2023/06/20 00:44:54;;;;;;;17.58;12.50;;;23.70;78.80;;;;;;5017092;28;20030;-81
2023/06/20 00:47:23;;;;;;;18.98;12.32;;;23.70;79.10;;;;;;5024132;28;20030;-83
2023/06/20 00:49:50;;;;;;;15.45;11.85;;;23.70;79.40;;;;;;5029175;28;20531;-82
2023/06/20 00:52:19;;;;;;;14.07;11.98;;;23.70;79.40;;;;;;5032958;28;20041;-82
2023/06/20 00:54:46;;;;;;;15.57;12.63;;;23.70;80.40;;;;;;5028677;28;20085;-81
2023/06/20 00:57:14;;;;;;;17.85;12.25;;;23.60;79.70;;;;;;5000989;28;20021;-82
2023/06/20 00:59:46;;;;;;;20.45;12.18;;;23.60;80.00;;;;;;5024810;28;20044;-81
2023/06/20 01:02:15;;;;;;;17.50;11.27;;;23.60;80.10;;;;;;5022634;28;20120;-82
2023/06/20 01:04:43;;;;;;;16.38;11.77;;;23.60;80.10;;;;;;5006874;28;20539;-82
2023/06/20 01:07:37;;;;;;;16.13;11.57;;;23.60;80.20;;;;;;5026221;28;20026;-84
2023/06/20 01:10:25;;;;;;;16.73;11.38;;;23.60;80.30;;;;;;5001596;28;20397;-82
2023/06/20 01:13:04;;;;;;;16.73;12.07;;;23.50;80.40;;;;;;5007980;28;20060;-81
2023/06/20 01:15:41;;;;;;;18.00;12.25;;;23.50;80.50;;;;;;5006760;28;20033;-82
2023/06/20 01:18:25;;;;;;;16.42;12.45;;;23.50;80.60;;;;;;5025173;28;20036;-83
2023/06/20 01:20:56;;;;;;;20.27;12.55;;;23.50;80.70;;;;;;5023733;28;20120;-82
2023/06/20 01:23:49;;;;;;;18.85;12.50;;;23.50;81.10;;;;;;5023288;28;20099;-81
2023/06/20 01:26:15;;;;;;;;;;;23.40;81.20;;;;;;5024789;28;20030;-83
2023/06/20 01:28:46;;;;;;;20.48;12.05;;;23.40;81.30;;;;;;5024794;28;20339;-81
2023/06/20 01:31:19;;;;;;;18.85;13.13;;;23.40;81.30;;;;;;5011691;28;20065;-82
2023/06/20 01:33:48;;;;;;;18.50;12.40;;;23.40;81.50;;;;;;5051414;28;20021;-83
2023/06/20 01:36:17;;;;;;;14.02;11.50;;;23.40;81.40;;;;;;5051468;28;20118;-81
2023/06/20 01:38:45;;;;;;;20.50;12.68;;;23.30;81.50;;;;;;5044027;28;20009;-82
2023/06/20 01:41:14;;;;;;;18.27;11.25;;;23.30;81.50;;;;;;5032668;28;20026;-80
2023/06/20 01:43:40;;;;;;;16.13;11.90;;;23.30;81.80;;;;;;5025770;28;20572;-80
2023/06/20 01:46:08;;;;;;;14.48;11.75;;;23.30;81.90;;;;;;5022905;28;20021;-83
2023/06/20 01:48:36;;;;;;;16.30;12.52;;;23.30;81.90;;;;;;5024825;28;20388;-81
2023/06/20 01:51:04;;;;;;;18.70;12.32;;;23.30;82.00;;;;;;5003855;28;20159;-81
2023/06/20 01:53:32;;;;;;;16.50;12.52;;;23.30;81.90;;;;;;5026292;28;20033;-81
2023/06/20 01:56:01;;;;;;;16.40;12.25;;;23.30;81.80;;;;;;5023327;28;20026;-84
2023/06/20 01:58:29;;;;;;;14.80;12.10;;;23.30;82.00;;;;;;5025904;28;20465;-84
2023/06/20 02:00:58;;;;;;;18.65;12.05;;;23.30;82.00;;;;;;5006962;28;20115;-84
2023/06/20 02:03:28;;;;;;;16.05;11.98;;;23.30;82.10;;;;;;5007994;28;20071;-84
2023/06/20 02:05:56;;;;;;;14.73;12.57;;;23.20;82.10;;;;;;5006144;28;20026;-84
2023/06/20 02:08:24;;;;;;;14.07;12.23;;;23.20;82.30;;;;;;5009278;28;20033;-84
2023/06/20 02:10:51;;;;;;;17.13;11.93;;;23.30;82.20;;;;;;4997636;28;20389;-83
2023/06/20 02:13:17;;;;;;;16.25;11.75;;;23.20;82.20;;;;;;5005634;28;20061;-84
2023/06/20 02:15:45;;;;;;;16.52;12.07;;;23.20;82.30;;;;;;5009558;28;20071;-83
2023/06/20 02:18:11;;;;;;;16.80;12.25;;;23.30;82.40;;;;;;5018068;28;20460;-85
2023/06/20 02:20:37;;;;;;;16.45;11.95;;;23.30;82.30;;;;;;5025799;28;20032;-84
2023/06/20 02:23:07;;;;;;;16.52;13.25;;;23.30;82.60;;;;;;5016638;28;20038;-84
2023/06/20 02:25:35;;;;;;;23.27;12.63;;;23.20;82.70;;;;;;5007471;28;20129;-84
2023/06/20 02:28:03;;;;;;;15.88;11.93;;;23.20;82.80;;;;;;5017466;28;20103;-85
2023/06/20 02:30:31;;;;;;;18.17;12.73;;;23.20;82.80;;;;;;5020620;28;20103;-84
2023/06/20 02:33:00;;;;;;;17.23;12.05;;;23.20;82.70;;;;;;5006747;28;20037;-80
2023/06/20 02:35:26;;;;;;;17.02;11.48;;;23.30;82.90;;;;;;5023403;28;20037;-81
2023/06/20 02:37:56;;;;;;;16.10;11.93;;;23.30;82.40;;;;;;5022624;28;20116;-80
2023/06/20 02:40:23;;;;;;;13.82;11.77;;;23.30;82.50;;;;;;5026412;28;20039;-81
2023/06/20 02:42:49;;;;;;;20.15;12.23;;;23.20;82.50;;;;;;5024658;28;20034;-81
2023/06/20 02:45:15;;;;;;;17.27;12.38;;;23.20;82.80;;;;;;5020138;28;20477;-81
2023/06/20 02:47:56;;;;;;;16.75;11.95;;;23.20;83.10;;;;;;5023168;28;20029;-82
2023/06/20 02:50:58;;;;;;;17.30;11.95;;;23.20;83.10;;;;;;5023865;28;20038;-78
2023/06/20 02:53:44;;;;;;;14.43;12.18;;;23.20;83.00;;;;;;5016678;28;20472;-80
2023/06/20 02:56:12;;;;;;;18.20;12.15;;;23.20;82.90;;;;;;5021913;28;20536;-80
2023/06/20 02:58:44;;;;;;;15.68;12.07;;;23.20;82.70;;;;;;5005673;28;20017;-81
2023/06/20 03:01:10;;;;;;;16.50;12.20;;;23.30;82.90;;;;;;5020182;28;20037;-81
2023/06/20 03:03:43;;;;;;;15.52;12.27;;;23.20;83.00;;;;;;5023681;28;20043;-80
2023/06/20 03:06:10;;;;;;;;;;;23.20;83.10;;;;;;5018509;28;20059;-81
2023/06/20 03:08:40;;;;;;;14.02;12.00;;;23.20;83.30;;;;;;5035313;28;20404;-80
2023/06/20 03:11:07;;;;;;;18.48;12.82;;;23.20;83.50;;;;;;5023394;28;20021;-81
2023/06/20 03:13:32;;;;;;;17.98;12.50;;;23.20;83.60;;;;;;5021681;28;20029;-81
2023/06/20 03:15:58;;;;;;;15.57;12.15;;;23.20;83.70;;;;;;5021568;28;20026;-81
2023/06/20 03:18:24;;;;;;;16.02;12.40;;;23.10;84.00;;;;;;5023650;28;20022;-80
2023/06/20 03:20:50;;;;;;;15.85;11.95;;;23.00;84.30;;;;;;5026744;28;20064;-81
2023/06/20 03:23:16;;;;;;;14.07;11.60;;;23.00;84.70;;;;;;5022415;28;20065;-81
2023/06/20 03:25:42;;;;;;;18.55;12.50;;;22.90;84.90;;;;;;5006017;28;20022;-83
2023/06/20 03:28:07;;;;;;;15.63;11.95;;;22.90;85.10;;;;;;5028385;28;20022;-84
2023/06/20 03:30:34;;;;;;;17.98;12.05;;;22.80;85.30;;;;;;5013174;28;20026;-84
2023/06/20 03:33:00;;;;;;;19.73;11.90;;;22.80;85.50;;;;;;5005000;28;20512;-81
2023/06/20 03:35:25;;;;;;;17.63;11.82;;;22.80;85.80;;;;;;5024200;28;20034;-81
2023/06/20 03:37:51;;;;;;;16.70;12.20;;;22.70;86.00;;;;;;5022608;28;20021;-83
2023/06/20 03:40:16;;;;;;;12.45;11.07;;;22.70;86.10;;;;;;5004604;28;20026;-81
2023/06/20 03:42:42;;;;;;;16.95;12.20;;;22.70;86.10;;;;;;5025566;28;20047;-80
2023/06/20 03:45:08;;;;;;;24.40;11.75;;;22.80;86.20;;;;;;5024084;28;20382;-82
2023/06/20 03:47:34;;;;;;;15.57;12.02;;;22.80;86.30;;;;;;5027246;28;20025;-81
2023/06/20 03:50:00;;;;;;;17.88;11.05;;;22.70;86.60;;;;;;5029518;28;20028;-82
2023/06/20 03:52:25;;;;;;;17.42;11.15;;;22.80;86.70;;;;;;5009593;28;20029;-82
2023/06/20 03:54:51;;;;;;;15.55;11.25;;;22.80;86.90;;;;;;5022905;28;20030;-82
2023/06/20 03:57:17;;;;;;;15.05;10.98;;;22.80;86.90;;;;;;5017451;28;20079;-83
2023/06/20 03:59:42;;;;;;;14.32;10.45;;;22.80;86.80;;;;;;5043889;28;20010;-83
2023/06/20 04:02:08;;;;;;;15.35;10.32;;;22.80;86.70;;;;;;5043246;28;20057;-83
2023/06/20 04:04:33;;;;;;;12.43;10.18;;;22.80;86.90;;;;;;5037936;28;20045;-83
2023/06/20 04:06:59;;;;;;;19.35;10.30;;;22.80;87.30;;;;;;5028121;28;20148;-83
2023/06/20 04:09:26;;;;;;;14.32;10.27;;;22.80;88.20;;;;;;5009739;28;20024;-84
2023/06/20 04:11:54;;;;;;;17.25;11.02;;;22.70;89.70;;;;;;5009702;28;20501;-83
2023/06/20 04:14:21;;;;;;;15.23;10.93;;;22.60;90.60;;;;;;5010576;28;20075;-84
2023/06/20 04:16:49;;;;;;;14.43;10.57;;;22.60;91.30;;;;;;5015581;28;20027;-80
2023/06/20 04:19:18;;;;;;;13.63;10.02;;;22.50;92.00;;;;;;5006228;28;20025;-83
2023/06/20 04:21:44;;;;;;;14.23;11.30;;;22.50;92.70;;;;;;5006166;28;20036;-83
2023/06/20 04:24:12;;;;;;;13.98;10.40;;;22.40;93.00;;;;;;5006745;28;20029;-83
2023/06/20 04:26:37;;;;;;;17.40;10.65;;;22.40;93.30;;;;;;5021197;28;20163;-81
2023/06/20 04:29:03;;;;;;;15.48;10.43;;;22.30;94.00;;;;;;5003609;28;20036;-81
2023/06/20 04:31:29;;;;;;;14.07;11.13;;;22.30;94.10;;;;;;5019761;28;20104;-83
2023/06/20 04:33:56;;;;;;;12.80;10.80;;;22.30;94.60;;;;;;5012759;28;20523;-81
2023/06/20 04:36:23;;;;;;;12.52;10.70;;;22.30;95.10;;;;;;5006158;28;20745;-82
2023/06/20 04:38:48;;;;;;;12.25;10.95;;;22.20;95.60;;;;;;5008399;28;20057;-81
2023/06/20 04:41:14;;;;;;;16.25;10.65;;;22.30;96.30;;;;;;5025334;28;20053;-80
2023/06/20 04:43:44;;;;;;;14.88;10.32;;;22.30;96.00;;;;;;5022054;28;20026;-81
2023/06/20 04:46:15;;;;;;;13.48;10.88;;;22.30;96.10;;;;;;5023532;28;20061;-83
2023/06/20 04:48:41;;;;;;;17.83;10.38;;;22.30;96.90;;;;;;5013613;28;20029;-81
2023/06/20 04:53:52;;;;;;;11.57;9.20;;;22.40;96.70;;;;;;5055337;22;20050;-82
2023/06/20 04:56:22;;;;;;;14.07;9.27;;;22.40;96.70;;;;;;5023053;28;20130;-82
2023/06/20 04:58:50;;;;;;;16.58;10.00;;;22.40;96.50;;;;;;5002076;28;20026;-84
2023/06/20 05:01:16;;;;;;;12.25;9.70;;;22.50;96.40;;;;;;5000378;28;20481;-85
2023/06/20 05:03:42;;;;;;;14.18;10.60;;;22.50;96.50;;;;;;5003674;28;20518;-85
2023/06/20 05:06:16;;;;;;;13.18;10.70;;;22.60;96.60;;;;;;5015551;28;20458;-84
2023/06/20 05:08:43;;;;;;;13.88;10.05;;;22.60;96.50;;;;;;5018842;28;20080;-82
2023/06/20 05:11:09;;;;;;;16.40;10.35;;;22.60;96.40;;;;;;5008835;28;20118;-82
2023/06/20 05:13:35;;;;;;;18.80;10.82;;;22.60;97.00;;;;;;5027884;28;20018;-83
2023/06/20 05:16:00;;;;;;;13.27;10.23;;;22.60;96.70;;;;;;5012885;28;20132;-84
2023/06/20 05:18:26;;;;;;;13.85;10.20;;;22.60;96.80;;;;;;5015796;28;20131;-83
2023/06/20 05:20:55;;;;;;;12.65;9.65;;;22.70;96.90;;;;;;5010257;28;20075;-83
2023/06/20 05:23:24;;;;;;;14.30;10.45;;;22.70;96.80;;;;;;5017087;28;20049;-83
2023/06/20 05:25:50;;;;;;;14.15;10.32;;;22.80;96.70;;;;;;5008975;28;20462;-82
2023/06/20 05:28:15;;;;;;;17.42;10.52;;;22.80;96.50;;;;;;5006151;28;20040;-82
2023/06/20 05:30:41;;;;;;;15.30;11.00;;;22.80;96.70;;;;;;5006332;28;20377;-83
2023/06/20 05:33:08;;;;;;;11.90;10.10;;;22.80;96.80;;;;;;5002558;28;20052;-84
2023/06/20 05:35:34;;;;;;;17.45;10.90;;;22.80;96.60;;;;;;5016771;28;20060;-83
2023/06/20 05:38:00;;;;;;;18.08;11.10;;;22.90;96.80;;;;;;5001337;28;20477;-83
2023/06/20 05:40:26;;;;;;;13.20;9.88;;;22.80;96.80;;;;;;5005472;28;20644;-83
2023/06/20 05:42:51;;;;;;;16.15;11.13;;;22.80;97.50;;;;;;5021412;28;20080;-84
2023/06/20 05:45:19;;;;;;;13.43;10.90;;;22.80;98.50;;;;;;5006322;28;20033;-84
2023/06/20 05:47:45;;;;;;;16.80;11.70;;;22.70;99.80;;;;;;5014799;28;20033;-83
2023/06/20 05:50:10;;;;;;;16.70;11.27;;;22.60;99.90;;;;;;4998927;28;20021;-84
2023/06/20 05:52:36;;;;;;;15.52;11.13;;;22.50;99.90;;;;;;5003534;28;20044;-83
2023/06/20 05:55:03;;;;;;;19.70;11.48;;;22.40;99.90;;;;;;5000088;28;20025;-84
2023/06/20 05:57:31;;;;;;;13.10;10.57;;;22.40;99.90;;;;;;5021209;28;20097;-84
2023/06/20 05:59:56;;;;;;;18.13;11.15;;;22.40;99.90;;;;;;5020909;28;20102;-84
2023/06/20 06:02:22;;;;;;;22.83;11.20;;;22.30;99.90;;;;;;5018703;28;20033;-83
2023/06/20 06:04:48;;;;;;;17.08;10.93;;;22.40;99.90;;;;;;5016699;28;20034;-82
2023/06/20 06:07:14;;;;;;;18.25;11.30;;;22.40;99.90;;;;;;4999920;28;20026;-83
2023/06/20 06:09:40;;;;;;;16.95;10.82;;;22.40;99.90;;;;;;5006306;28;20057;-83
2023/06/20 06:12:11;;;;;;;18.63;10.82;;;22.40;99.90;;;;;;5015488;28;20265;-84
2023/06/20 06:14:37;;;;;;;15.32;11.00;;;22.40;99.90;;;;;;5017138;28;20036;-85
2023/06/20 06:17:02;;;;;;;17.52;11.68;;;22.50;99.90;;;;;;5015222;28;20021;-84
2023/06/20 06:19:28;;;;;;;22.65;11.82;;;22.50;99.90;;;;;;5000708;28;20477;-84
2023/06/20 06:21:54;;;;;;;20.30;11.88;;;22.40;99.90;;;;;;5018760;28;20076;-86
2023/06/20 06:24:21;;;;;;;17.48;12.63;;;22.40;99.90;;;;;;5029755;28;20018;-86
2023/06/20 06:26:48;;;;;;;22.27;11.55;;;22.50;99.90;;;;;;5014176;28;20032;-86
2023/06/20 06:29:15;;;;;;;17.42;12.02;;;22.70;99.90;;;;;;5018465;28;20036;-82
2023/06/20 06:31:41;;;;;;;23.67;12.05;;;22.70;99.90;;;;;;5006090;28;20503;-83
2023/06/20 06:34:07;;;;;;;20.85;13.43;;;22.80;99.90;;;;;;5004418;28;20026;-83
2023/06/20 06:36:34;;;;;;;18.20;13.25;;;22.90;99.90;;;;;;5000409;28;20025;-81
2023/06/20 06:39:01;;;;;;;21.13;13.32;;;22.90;99.90;;;;;;5000203;28;20029;-83
2023/06/20 06:41:27;;;;;;;16.98;12.85;;;22.90;99.90;;;;;;4997192;28;20044;-83
2023/06/20 06:43:53;;;;;;;19.58;13.18;;;23.00;99.90;;;;;;5012837;28;20084;-83
2023/06/20 06:46:21;;;;;;;18.65;13.35;;;23.20;99.90;;;;;;4999443;28;20634;-84
2023/06/20 06:48:48;;;;;;;16.52;12.52;;;23.30;99.90;;;;;;5011768;28;20030;-83
2023/06/20 06:51:14;;;;;;;17.13;12.05;;;23.30;99.90;;;;;;5004716;28;20065;-84
2023/06/20 06:53:39;;;;;;;19.27;12.65;;;23.40;99.90;;;;;;5014081;28;20033;-83
2023/06/20 06:56:05;;;;;;;16.02;11.85;;;23.50;99.90;;;;;;4999869;28;20034;-83
2023/06/20 06:58:30;;;;;;;15.23;11.00;;;23.60;99.90;;;;;;5015696;28;20033;-83
2023/06/20 07:00:56;;;;;;;16.17;10.98;;;23.70;99.90;;;;;;5015819;28;20037;-84
2023/06/20 07:03:22;;;;;;;17.38;10.63;;;23.80;99.90;;;;;;5017636;28;20048;-82
2023/06/20 07:05:47;;;;;;;16.52;11.48;;;23.90;99.90;;;;;;5005633;28;20033;-84
2023/06/20 07:08:13;;;;;;;14.35;11.35;;;24.00;99.90;;;;;;5004054;28;20018;-83
2023/06/20 07:10:39;;;;;;;12.63;10.95;;;24.00;99.90;;;;;;5017716;28;20028;-84
2023/06/20 07:13:06;;;;;;;15.77;12.07;;;24.10;99.90;;;;;;5004509;28;20018;-82
2023/06/20 07:15:32;;;;;;;14.52;11.32;;;24.20;99.90;;;;;;5017384;28;20313;-83
2023/06/20 07:17:58;;;;;;;16.42;11.52;;;24.40;99.90;;;;;;5018743;28;20030;-84
2023/06/20 07:20:24;;;;;;;18.33;11.50;;;24.50;99.90;;;;;;5013191;28;20500;-85
2023/06/20 07:22:49;;;;;;;19.58;10.80;;;24.60;99.90;;;;;;5016253;28;20017;-85
2023/06/20 07:25:19;;;;;;;20.45;12.38;;;24.80;99.90;;;;;;5010723;28;20045;-84
2023/06/20 07:27:44;;;;;;;18.90;11.27;;;24.90;99.90;;;;;;5041848;28;20031;-84
2023/06/20 07:30:10;;;;;;;16.23;10.82;;;24.90;99.90;;;;;;5012846;28;20029;-86
2023/06/20 07:32:38;;;;;;;20.85;11.52;;;25.10;99.90;;;;;;5004762;28;20026;-85
2023/06/20 07:35:04;;;;;;;17.50;11.15;;;25.20;99.90;;;;;;5017877;28;20025;-83
2023/06/20 07:37:30;;;;;;;16.35;10.48;;;25.10;99.90;;;;;;5016855;28;20029;-83
2023/06/20 07:39:55;;;;;;;19.00;9.90;;;25.20;99.90;;;;;;5003934;28;20075;-84
2023/06/20 07:42:21;;;;;;;18.90;10.45;;;25.40;99.90;;;;;;4997134;28;20017;-85
2023/06/20 07:44:46;;;;;;;18.23;10.10;;;25.50;99.90;;;;;;5013643;28;20085;-84
2023/06/20 07:47:13;;;;;;;18.35;10.27;;;25.60;99.90;;;;;;5014719;28;20030;-83
2023/06/20 07:49:38;;;;;;;16.70;9.90;;;25.70;99.20;;;;;;5000912;28;20406;-85
2023/06/20 07:52:04;;;;;;;12.90;9.00;;;25.80;99.00;;;;;;5008588;28;20063;-84
2023/06/20 07:54:33;;;;;;;14.68;8.27;;;25.80;98.30;;;;;;5006914;28;20146;-84
2023/06/20 07:56:58;;;;;;;12.23;7.55;;;26.00;96.70;;;;;;5013606;28;20036;-82
2023/06/20 07:59:24;;;;;;;16.70;7.38;;;26.20;96.40;;;;;;5005037;28;20436;-83
2023/06/20 08:01:49;;;;;;;9.75;7.35;;;26.40;95.70;;;;;;5006734;28;20434;-83
2023/06/20 08:04:20;;;;;;;13.05;8.82;;;26.70;95.20;;;;;;4998241;28;20104;-83
2023/06/20 08:06:45;;;;;;;10.77;7.30;;;26.90;94.70;;;;;;5013047;28;20033;-84
2023/06/20 08:09:13;;;;;;;25.33;7.90;;;27.00;93.90;;;;;;5004891;28;20030;-83
2023/06/20 08:11:39;;;;;;;10.32;8.52;;;27.20;93.50;;;;;;4999993;28;20381;-83
2023/06/20 08:14:04;;;;;;;13.23;7.13;;;27.30;93.60;;;;;;5017305;28;20017;-84
2023/06/20 08:16:31;;;;;;;14.63;8.73;;;27.40;93.00;;;;;;5005498;28;20021;-85
2023/06/20 08:18:57;;;;;;;9.98;8.40;;;27.60;92.80;;;;;;5002243;28;20561;-82
2023/06/20 08:21:22;;;;;;;14.07;8.65;;;27.60;92.10;;;;;;5013527;28;20029;-82
2023/06/20 08:23:48;;;;;;;10.77;8.13;;;27.70;92.10;;;;;;5019051;28;20042;-82
2023/06/20 08:26:13;;;;;;;14.63;8.50;;;28.00;91.80;;;;;;5014702;28;20028;-82
2023/06/20 08:28:39;;;;;;;15.02;7.90;;;28.10;91.30;;;;;;4999164;28;20125;-82
2023/06/20 08:31:05;;;;;;;11.38;7.68;;;28.20;90.60;;;;;;5018790;28;20041;-82
2023/06/20 08:33:30;;;;;;;12.43;7.85;;;28.30;90.20;;;;;;5013701;28;20037;-82
2023/06/20 08:35:56;;;;;;;9.20;7.38;;;28.40;89.10;;;;;;4998603;28;20025;-82
2023/06/20 08:38:22;;;;;;;9.82;7.10;;;28.60;88.80;;;;;;5014928;28;20489;-82
2023/06/20 08:40:48;;;;;;;14.05;7.65;;;28.80;88.00;;;;;;5001847;28;20069;-84
2023/06/20 08:43:16;;;;;;;9.18;7.22;;;29.30;86.80;;;;;;5005863;28;20074;-86
2023/06/20 08:45:42;;;;;;;217.40;90.50;;;29.70;84.80;;;;;;5005713;28;20076;-81
2023/06/20 08:48:09;;;;;;;57.90;31.10;;;29.80;83.70;;;;;;5012891;28;20064;-81
2023/06/20 08:50:36;;;;;;;83.35;44.60;;;29.90;82.90;;;;;;5017677;28;20022;-82
2023/06/20 08:53:05;;;;;;;36.05;19.63;;;29.70;82.80;;;;;;5017355;28;20033;-81
2023/06/20 08:55:32;;;;;;;11.32;8.15;;;29.90;82.80;;;;;;5013127;28;20014;-81
2023/06/20 08:57:58;;;;;;;42.67;25.73;;;30.20;82.50;;;;;;5018700;28;20108;-81
2023/06/20 09:00:24;;;;;;;13.98;8.50;;;30.30;81.20;;;;;;5012573;28;20121;-82
2023/06/20 09:02:51;;;;;;;12.95;7.15;;;30.40;80.40;;;;;;5017212;28;20544;-81
2023/06/20 09:05:17;;;;;;;10.95;7.82;;;30.60;80.90;;;;;;5018017;28;20029;-81
2023/06/20 09:07:44;;;;;;;13.88;8.65;;;30.80;80.20;;;;;;5015496;28;20065;-80
2023/06/20 09:10:18;;;;;;;16.95;8.65;;;31.00;78.70;;;;;;5002754;28;20038;-81
2023/06/20 09:12:51;;;;;;;12.07;7.78;;;31.10;78.20;;;;;;5014634;28;20454;-81
2023/06/20 09:15:21;;;;;;;12.98;6.80;;;30.80;76.60;;;;;;5015510;28;20022;-81
2023/06/20 09:17:52;;;;;;;12.75;7.28;;;30.80;77.70;;;;;;5016182;28;20022;-83
2023/06/20 09:20:18;;;;;;;10.98;7.47;;;31.10;76.80;;;;;;5011256;28;20033;-83
2023/06/20 09:22:44;;;;;;;10.35;7.53;;;31.00;75.30;;;;;;5015922;28;20063;-82
2023/06/20 09:25:11;;;;;;;9.02;7.95;;;31.00;75.70;;;;;;5001547;28;20061;-82
2023/06/20 09:27:43;;;;;;;12.95;8.43;;;31.10;75.40;;;;;;5002579;28;20031;-82
2023/06/20 09:30:09;;;;;;;10.05;7.90;;;31.40;75.30;;;;;;5018057;28;20030;-82
2023/06/20 09:32:42;;;;;;;13.65;8.50;;;31.50;74.60;;;;;;5021342;28;20412;-82
2023/06/20 09:35:09;;;;;;;12.95;7.88;;;31.50;74.00;;;;;;5026572;28;20024;-82
2023/06/20 09:37:46;;;;;;;10.73;8.40;;;31.30;74.80;;;;;;5013148;28;20468;-82
2023/06/20 09:40:17;;;;;;;13.00;8.70;;;31.60;73.40;;;;;;5014258;28;20026;-83
2023/06/20 09:42:44;;;;;;;12.05;7.75;;;31.30;73.50;;;;;;5017603;28;20144;-83
2023/06/20 09:45:12;;;;;;;11.27;7.57;;;31.20;74.80;;;;;;5015757;28;20030;-83
2023/06/20 09:47:40;;;;;;;11.43;7.93;;;31.00;74.80;;;;;;5011536;28;20029;-83
2023/06/20 09:50:13;;;;;;;11.82;8.88;;;31.10;75.20;;;;;;5000391;28;20034;-82
2023/06/20 09:52:50;;;;;;;15.73;8.20;;;31.40;73.80;;;;;;5016693;28;20037;-83
2023/06/20 09:55:18;;;;;;;9.27;7.50;;;31.90;72.00;;;;;;5013779;28;20033;-80
2023/06/20 09:57:50;;;;;;;11.55;9.05;;;32.30;70.90;;;;;;5018710;28;20559;-83
2023/06/20 10:00:17;;;;;;;8.75;7.88;;;32.30;69.50;;;;;;5021102;28;20375;-82
2023/06/20 10:02:47;;;;;;;10.05;6.93;;;31.90;70.40;;;;;;5013622;28;20072;-82
2023/06/20 10:05:14;;;;;;;10.95;6.72;;;31.80;71.00;;;;;;5018924;28;20053;-83
2023/06/20 10:07:42;;;;;;;8.80;6.85;;;32.00;70.30;;;;;;5017222;28;20073;-83
2023/06/20 10:10:11;;;;;;;8.07;7.00;;;32.20;69.50;;;;;;5016361;28;20497;-82
2023/06/20 10:12:38;;;;;;;15.38;7.78;;;32.20;69.20;;;;;;5015400;28;20033;-82
2023/06/20 10:15:07;;;;;;;8.30;6.93;;;32.20;69.70;;;;;;5017153;28;20028;-81
2023/06/20 10:17:39;;;;;;;12.93;7.85;;;32.40;69.30;;;;;;5017238;28;20026;-82
2023/06/20 10:20:08;;;;;;;11.82;7.90;;;32.60;69.80;;;;;;5017861;28;20026;-82
2023/06/20 10:22:38;;;;;;;10.43;7.47;;;32.50;68.40;;;;;;5014138;28;20432;-82
2023/06/20 10:25:11;;;;;;;15.00;7.90;;;32.50;68.30;;;;;;4998196;28;20464;-81
2023/06/20 10:27:41;;;;;;;11.73;6.47;;;32.30;68.10;;;;;;5013072;28;20021;-80
2023/06/20 10:30:08;;;;;;;9.95;6.00;;;32.10;68.80;;;;;;5011845;28;20057;-81
2023/06/20 10:32:34;;;;;;;6.32;5.70;;;32.60;67.70;;;;;;5011895;28;20025;-81
2023/06/20 10:35:15;;;;;;;5.82;5.18;;;32.90;64.50;;;;;;4999442;28;20036;-82
2023/06/20 10:37:43;;;;;;;6.80;4.88;;;32.90;62.50;;;;;;4998906;28;20030;-83
2023/06/20 10:40:28;;;;;;;8.60;5.35;;;32.60;61.90;;;;;;4994664;28;20073;-83
2023/06/20 10:42:54;;;;;;;5.13;4.70;;;32.40;62.70;;;;;;5001891;28;20442;-82
2023/06/20 10:45:21;;;;;;;5.95;5.35;;;32.60;63.60;;;;;;5013804;28;20021;-83
2023/06/20 10:47:47;;;;;;;5.60;5.10;;;32.90;63.00;;;;;;4997911;28;20053;-82
2023/06/20 10:50:14;;;;;;;5.82;5.32;;;33.00;62.00;;;;;;5013836;28;20079;-82
2023/06/20 10:52:40;;;;;;;6.93;5.32;;;33.70;61.30;;;;;;5010124;28;20036;-82
2023/06/20 10:55:13;;;;;;;5.68;4.85;;;33.90;60.60;;;;;;5013634;28;20044;-82
2023/06/20 10:57:47;;;;;;;5.90;5.40;;;34.40;59.70;;;;;;5009447;28;20481;-82
2023/06/20 11:00:15;;;;;;;6.38;5.88;;;35.00;58.50;;;;;;5010412;28;20030;-81
2023/06/20 11:02:41;;;;;;;6.18;5.70;;;35.10;57.60;;;;;;5011534;28;20500;-82
2023/06/20 11:05:09;;;;;;;6.70;5.38;;;34.60;57.20;;;;;;4995938;28;20098;-82
2023/06/20 11:07:36;;;;;;;6.20;5.70;;;34.60;58.40;;;;;;4999062;28;20022;-82
2023/06/20 11:10:13;;;;;;;6.50;5.60;;;34.20;58.10;;;;;;4999375;28;20046;-83
2023/06/20 11:12:43;;;;;;;6.40;5.80;;;34.10;58.60;;;;;;5010130;28;20091;-82
2023/06/20 11:15:22;;;;;;;25.25;17.92;;;33.90;59.60;;;;;;5011647;28;20033;-82
2023/06/20 11:17:48;;;;;;;12.00;9.35;;;33.80;58.90;;;;;;4993490;28;20068;-80
2023/06/20 11:20:15;;;;;;;49.45;27.38;;;33.60;59.40;;;;;;4998291;28;20030;-81
2023/06/20 11:22:41;;;;;;;7.75;5.55;;;33.90;59.30;;;;;;4998965;28;20603;-81
2023/06/20 11:25:07;;;;;;;6.82;6.22;;;34.30;59.40;;;;;;5003489;28;20042;-79
2023/06/20 11:27:33;;;;;;;6.88;6.07;;;34.60;57.80;;;;;;4993561;28;20030;-79
2023/06/20 11:29:59;;;;;;;7.22;6.57;;;34.70;58.00;;;;;;4997749;28;20029;-79
2023/06/20 11:32:24;;;;;;;6.47;5.97;;;34.40;58.00;;;;;;5004893;28;20028;-80
2023/06/20 11:34:54;;;;;;;6.85;5.28;;;34.10;58.40;;;;;;5004655;28;20022;-80
2023/06/20 11:37:23;;;;;;;6.20;5.45;;;34.10;58.00;;;;;;5004841;28;20018;-81
2023/06/20 11:39:49;;;;;;;6.07;5.30;;;34.00;57.70;;;;;;5014757;28;20103;-80
2023/06/20 11:42:16;;;;;;;5.13;4.70;;;34.10;57.70;;;;;;5016986;28;20017;-80
2023/06/20 11:44:42;;;;;;;8.68;5.20;;;34.40;57.10;;;;;;5019250;28;20038;-79
2023/06/20 11:47:07;;;;;;;5.43;4.93;;;34.50;57.00;;;;;;5014141;28;20504;-79
2023/06/20 11:49:33;;;;;;;5.65;5.15;;;34.60;56.80;;;;;;5011991;28;20041;-80
2023/06/20 11:52:02;;;;;;;5.90;5.50;;;34.60;56.70;;;;;;5011865;28;20460;-80
2023/06/20 11:54:28;;;;;;;7.55;5.50;;;34.90;57.10;;;;;;5016455;28;20025;-81
2023/06/20 11:56:56;;;;;;;14.05;9.68;;;35.20;56.50;;;;;;5013548;28;20074;-81
2023/06/20 11:59:24;;;;;;;28.73;16.33;;;35.30;55.70;;;;;;5016476;28;20037;-81
2023/06/20 12:01:51;;;;;;;7.30;5.03;;;35.50;55.90;;;;;;5008770;28;20486;-82
2023/06/20 12:04:21;;;;;;;5.38;4.97;;;35.90;54.90;;;;;;5017051;28;20033;-84
2023/06/20 12:06:53;;;;;;;5.38;4.50;;;35.90;53.60;;;;;;5017291;28;20045;-83
2023/06/20 12:09:19;;;;;;;6.15;5.57;;;35.80;53.40;;;;;;4999896;28;20061;-83
2023/06/20 12:11:52;;;;;;;6.20;5.38;;;35.90;53.60;;;;;;5016129;28;20117;-82
2023/06/20 12:14:18;;;;;;;5.47;5.07;;;36.00;53.30;;;;;;5008327;28;20030;-81
2023/06/20 12:16:44;;;;;;;7.13;5.50;;;36.20;53.60;;;;;;5015804;28;20021;-82
2023/06/20 12:19:11;;;;;;;6.75;5.22;;;36.10;53.00;;;;;;5015283;28;20104;-83
2023/06/20 12:21:38;;;;;;;8.40;5.80;;;36.00;53.10;;;;;;5015494;28;20030;-83
2023/06/20 12:24:07;;;;;;;8.23;6.40;;;35.90;53.20;;;;;;5004851;28;20049;-82
2023/06/20 12:26:32;;;;;;;5.60;5.03;;;35.40;53.80;;;;;;5016403;28;20056;-81
2023/06/20 12:28:58;;;;;;;6.10;4.97;;;35.60;54.00;;;;;;5019795;28;20061;-80
2023/06/20 12:31:24;;;;;;;5.28;4.97;;;35.90;54.10;;;;;;5019383;28;20080;-80
2023/06/20 12:33:52;;;;;;;5.07;4.68;;;36.20;53.10;;;;;;5003434;28;20495;-82
2023/06/20 12:36:18;;;;;;;4.88;4.40;;;36.00;52.30;;;;;;5001518;28;20473;-81
2023/06/20 12:38:44;;;;;;;5.28;4.85;;;36.10;52.70;;;;;;5017190;28;20018;-81